Flight ASXV36

  • Submitted By: Krzysztof H. Blaszkow
  • Departure Airport: La Palma Airport (GCLA)
  • Arrival Airport: El Hierro Airport (GCHI)
  • Aircraft: C 172 (LC-LXZ)
  • Flight Time: 00.38.50
  • Date Submitted: 07/19/2017
  • Status: Accepted
Flight Details
Gross Revenue:
(3 load / € 300.00 per unit
€ 900.00
Fuel Cost:
(13.1542 fuel used @ 0.45 / unit)
€ 5.92

Additional Log Information:

View Log

[21:24] - Cessna Skyhawk 172SP Paint2
[21:24] - Flight ASXV36 is ready to depart GCLA with a final destination of GCHI.
[21:24] - Parking Brake Applied
[21:24] - Beacon Light ON
[21:24] - Instrument Lights ON
[21:24] - Boarding
[21:24] - ADF1 - 389.0
[21:24] - ADF2 - 240.0
[21:24] - NAV1 - 117.70
[21:24] - NAV2 - 116.20
[21:24] - COM1 - 122.80
[21:24] - COM2 - 123.45
[21:24] - Transponder - 7000
[21:25] - Taxi Lights ON 3AGL
[21:25] - Taxi Lights OFF 3AGL
[21:25] - Navigation Lights ON 3AGL
[21:25] - Engine 1 Started
[21:26] - Taxi Lights ON 3AGL
[21:26] - Parking Brake Released
[21:28] - Taxiing to Runway
[21:29] - Landing Lights ON 3AGL
[21:29] - Taxi Lights OFF 3AGL
[21:29] - Strobe Lights ON 3AGL
[21:32] - Flaps to position 1
[21:32] - Taking Off with 3 passengers on board
[21:32] - Take off at 71kts, with a pitch of 4deg and 141lbs of fuel on board
[21:32] - Wind Heading 38 | Wind Speed 10kts | Temperature 23 deg C
[21:32] - METAR Departure: GCLA 192000Z 02013KT 360V060 9999 SCT025 23/17 Q1020

[21:32] - Flaps to position 0 at 141ft and 74kts
[21:33] - Climbing to TOC
[21:33] - TOC reached
[21:33] - Cruise started
[21:45] - ADF1 - 376.0
[21:46] - NAV1 - 117.70
[21:56] - Flaps to position 1 at 564ft and 114kts
[21:58] - Landed at -121fpm. With 113lbs of fuel onboard and a pitch angle of 0deg.
[21:58] - Wind Heading 12 | Wind Speed 10kts | Temperature 23 deg C
[21:58] - METAR Arrival: GCHI 192030Z AUTO 36019KT 9999 BKN019/// 22/18 Q1019

[21:58] - Flaps to position 2
[21:58] - Taxiing to Gate
[21:59] - Flaps to position 1
[21:59] - Flaps to position 0
[22:02] - Strobe Lights OFF 3AGL
[22:02] - Taxi Lights ON 3AGL
[22:02] - Landing Lights OFF 3AGL
[22:02] - Parking Brake Applied
[22:02] - Arrived safely at GCHI. We hope you enjoyed your flight!
[22:02] - Taxi Lights OFF 3AGL
[22:02] - Engine 1 Stopped
[22:03] - Cessna Skyhawk 172SP Paint2
[22:03] - MaxSim Rate: 1x
[22:03] - SiouxAcars ver: 1.0.1.2

Route Map